Time;durP1;ratioP1;P1;durP2;ratioP2;P2;SDS_P1;SDS_P2;PMS_P1;PMS_P2;Temp;Humidity;BMP_temperature;BMP_pressure;BME280_temperature;BME280_humidity;BME280_pressure;Samples;Min_cycle;Max_cycle;Signal;HPM_P1;HPM_P2
2022/03/10 00:01:29;;;;;;;38.80;13.50;;;1.80;95.20;;;;;;4995679;28;20042;-75
2022/03/10 00:03:56;;;;;;;40.22;15.20;;;1.90;95.30;;;;;;4995931;28;20103;-72
2022/03/10 00:06:22;;;;;;;46.17;16.50;;;1.90;95.30;;;;;;4996007;28;20088;-73
2022/03/10 00:08:49;;;;;;;45.63;15.20;;;1.90;95.60;;;;;;5011954;28;20041;-72
2022/03/10 00:11:14;;;;;;;44.50;15.67;;;1.90;95.50;;;;;;4995224;28;20045;-72
2022/03/10 00:13:40;;;;;;;35.38;13.90;;;1.90;95.40;;;;;;4995278;28;20303;-75
2022/03/10 00:16:06;;;;;;;39.75;14.07;;;1.90;95.30;;;;;;4978888;28;20103;-72
2022/03/10 00:18:32;;;;;;;34.22;14.35;;;1.80;95.30;;;;;;4979735;28;20058;-73
2022/03/10 00:20:58;;;;;;;31.63;13.13;;;1.80;95.40;;;;;;4994885;28;20053;-72
2022/03/10 00:23:24;;;;;;;42.42;14.75;;;1.80;95.60;;;;;;4980807;28;20046;-71
2022/03/10 00:25:49;;;;;;;39.55;14.55;;;1.90;95.90;;;;;;5015297;28;20517;-72
2022/03/10 00:28:18;;;;;;;38.05;13.52;;;1.90;95.80;;;;;;4983440;28;20132;-71
2022/03/10 00:30:44;;;;;;;35.13;13.00;;;1.90;96.10;;;;;;4999075;28;20462;-72
2022/03/10 00:33:10;;;;;;;34.95;13.52;;;1.90;95.70;;;;;;5015540;28;20049;-71
2022/03/10 00:35:36;;;;;;;41.22;14.75;;;1.90;95.80;;;;;;5016657;28;20056;-71
2022/03/10 00:38:01;;;;;;;36.92;14.90;;;1.90;96.40;;;;;;5014973;28;20050;-72
2022/03/10 00:40:28;;;;;;;39.88;14.63;;;1.90;96.40;;;;;;4982700;28;20108;-72
2022/03/10 00:42:54;;;;;;;41.20;15.07;;;1.90;96.50;;;;;;5014789;28;20060;-73
2022/03/10 00:45:20;;;;;;;36.70;14.05;;;1.90;96.50;;;;;;4999005;28;20046;-71
2022/03/10 00:47:46;;;;;;;37.78;14.80;;;1.90;96.50;;;;;;5016073;28;20553;-70
2022/03/10 00:50:12;;;;;;;38.97;14.68;;;1.90;96.60;;;;;;4999085;28;20089;-71
2022/03/10 00:52:43;;;;;;;36.40;14.30;;;1.80;96.50;;;;;;5015887;28;20046;-71
2022/03/10 00:55:10;;;;;;;39.67;15.07;;;1.80;96.30;;;;;;5014624;28;20144;-71
2022/03/10 00:57:37;;;;;;;36.63;13.90;;;1.80;96.50;;;;;;5014438;28;20049;-71
2022/03/10 01:00:05;;;;;;;38.85;15.23;;;1.70;96.60;;;;;;5014795;28;20092;-72
2022/03/10 01:02:32;;;;;;;37.55;14.38;;;1.70;96.70;;;;;;5015620;28;20053;-73
2022/03/10 01:04:58;;;;;;;42.80;15.38;;;1.70;96.80;;;;;;5014352;28;20497;-72
2022/03/10 01:07:24;;;;;;;40.55;14.15;;;1.70;97.10;;;;;;4998600;28;20046;-71
2022/03/10 01:09:51;;;;;;;37.88;14.23;;;1.60;97.10;;;;;;4982159;28;20057;-71
2022/03/10 01:12:17;;;;;;;44.13;14.38;;;1.60;97.10;;;;;;5014551;28;20049;-72
2022/03/10 01:14:43;;;;;;;40.58;15.00;;;1.60;97.40;;;;;;4998746;28;20057;-74
2022/03/10 01:17:10;;;;;;;35.25;14.10;;;1.70;97.60;;;;;;4997575;28;20086;-72
2022/03/10 01:19:35;;;;;;;42.42;15.38;;;1.60;97.60;;;;;;5014563;28;20076;-71
2022/03/10 01:22:02;;;;;;;35.47;14.57;;;1.60;97.50;;;;;;4997860;28;20053;-72
2022/03/10 01:24:28;;;;;;;39.65;14.88;;;1.60;97.80;;;;;;5015607;28;20073;-76
2022/03/10 01:26:53;;;;;;;45.33;16.13;;;1.60;98.70;;;;;;4997985;28;20050;-71
2022/03/10 01:29:19;;;;;;;38.58;14.45;;;1.60;98.40;;;;;;5014389;28;20467;-71
2022/03/10 01:31:45;;;;;;;41.30;14.50;;;1.60;98.40;;;;;;5013578;28;20442;-72
2022/03/10 01:34:12;;;;;;;41.25;15.52;;;1.60;98.30;;;;;;4997539;28;20046;-71
2022/03/10 01:36:40;;;;;;;41.78;14.80;;;1.60;98.30;;;;;;5015033;28;20104;-74
2022/03/10 01:39:05;;;;;;;34.08;14.07;;;1.60;98.40;;;;;;4997843;28;20057;-72
2022/03/10 01:41:32;;;;;;;44.50;16.42;;;1.60;98.30;;;;;;5013576;28;20048;-77
2022/03/10 01:44:07;;;;;;;37.13;14.85;;;1.60;98.30;;;;;;5014822;28;20504;-71
2022/03/10 01:46:33;;;;;;;43.78;15.38;;;1.60;98.40;;;;;;5015265;28;20054;-71
2022/03/10 01:48:59;;;;;;;41.83;15.30;;;1.60;98.50;;;;;;5015097;28;20085;-71
2022/03/10 01:51:26;;;;;;;40.15;14.38;;;1.60;98.70;;;;;;5013833;28;20065;-72
2022/03/10 01:53:52;;;;;;;39.83;15.38;;;1.60;98.60;;;;;;5013843;28;20038;-71
2022/03/10 01:56:19;;;;;;;39.45;15.32;;;1.60;98.40;;;;;;5013361;28;20053;-71
2022/03/10 01:58:46;;;;;;;41.47;15.40;;;1.60;98.60;;;;;;4997419;28;20042;-71
2022/03/10 02:01:12;;;;;;;39.17;15.02;;;1.60;98.50;;;;;;4997448;28;20042;-72
2022/03/10 02:03:38;;;;;;;44.20;15.55;;;1.60;98.70;;;;;;5013306;28;20054;-72
2022/03/10 02:06:05;;;;;;;42.83;15.00;;;1.60;99.00;;;;;;5014815;28;20046;-73
2022/03/10 02:11:16;;;;;;;40.53;16.02;;;1.60;98.90;;;;;;5013558;28;20062;-72
2022/03/10 02:13:42;;;;;;;39.30;14.73;;;1.50;98.80;;;;;;5012989;28;20053;-72
2022/03/10 02:18:57;;;;;;;42.53;16.52;;;1.50;98.90;;;;;;5015202;28;20061;-72
2022/03/10 02:21:23;;;;;;;40.85;15.35;;;1.50;98.90;;;;;;5013823;28;20362;-72
2022/03/10 02:23:49;;;;;;;41.95;15.38;;;1.50;99.10;;;;;;4996772;28;20137;-72
2022/03/10 02:26:15;;;;;;;44.33;15.18;;;1.40;99.30;;;;;;4996658;28;20038;-72
2022/03/10 02:28:42;;;;;;;43.45;16.05;;;1.40;99.50;;;;;;5013861;28;20057;-72
2022/03/10 02:31:09;;;;;;;45.15;16.05;;;1.40;99.50;;;;;;5014223;28;20104;-70
2022/03/10 02:33:35;;;;;;;40.33;15.60;;;1.40;99.60;;;;;;5012953;28;20049;-77
2022/03/10 02:36:02;;;;;;;37.75;14.52;;;1.40;99.70;;;;;;5014295;28;20042;-72
2022/03/10 02:38:27;;;;;;;41.60;15.43;;;1.40;99.80;;;;;;5014558;28;20069;-72
2022/03/10 02:40:53;;;;;;;44.45;15.30;;;1.40;99.90;;;;;;5013461;28;20053;-72
2022/03/10 02:43:20;;;;;;;42.85;16.00;;;1.40;99.90;;;;;;5012620;28;20129;-72
2022/03/10 02:45:46;;;;;;;43.30;15.93;;;1.30;99.90;;;;;;4995713;28;20409;-72
2022/03/10 02:48:13;;;;;;;39.50;16.17;;;1.30;99.90;;;;;;5012929;28;20381;-72
2022/03/10 02:50:39;;;;;;;43.55;14.57;;;1.30;99.90;;;;;;5012475;28;20042;-76
2022/03/10 02:53:07;;;;;;;55.95;16.05;;;1.30;99.90;;;;;;4996002;28;20095;-71
2022/03/10 02:55:33;;;;;;;43.03;16.55;;;1.30;99.90;;;;;;5013570;28;20346;-72
2022/03/10 02:57:59;;;;;;;48.78;16.20;;;1.30;99.90;;;;;;4996474;28;20042;-71
2022/03/10 03:00:25;;;;;;;42.88;16.23;;;1.20;99.90;;;;;;5012357;28;20069;-71
2022/03/10 03:02:51;;;;;;;44.90;15.65;;;1.20;99.90;;;;;;4996124;28;20482;-71
2022/03/10 03:05:17;;;;;;;49.75;16.65;;;1.20;99.90;;;;;;4995812;28;20052;-72
2022/03/10 03:07:44;;;;;;;40.30;15.35;;;1.10;99.90;;;;;;4996319;28;20135;-72
2022/03/10 03:10:11;;;;;;;40.75;15.52;;;1.10;99.90;;;;;;5013273;28;20089;-71
2022/03/10 03:12:51;;;;;;;46.42;15.63;;;1.00;99.90;;;;;;5013328;28;20069;-71
2022/03/10 03:15:17;;;;;;;48.60;17.20;;;1.00;99.90;;;;;;5012196;28;20049;-72
2022/03/10 03:17:43;;;;;;;45.33;15.35;;;1.00;99.90;;;;;;5011917;28;20052;-72
2022/03/10 03:20:14;;;;;;;42.63;16.35;;;1.00;99.90;;;;;;5012036;28;20128;-73
2022/03/10 03:22:43;;;;;;;42.90;16.77;;;1.00;99.90;;;;;;5012808;28;20053;-77
2022/03/10 03:25:13;;;;;;;45.72;16.90;;;1.00;99.90;;;;;;5011919;28;20056;-73
2022/03/10 03:27:41;;;;;;;44.20;16.35;;;1.00;99.90;;;;;;5012956;28;20054;-74
2022/03/10 03:30:08;;;;;;;48.65;15.88;;;1.00;99.90;;;;;;5011563;28;20072;-71
2022/03/10 03:32:34;;;;;;;41.50;15.80;;;1.00;99.90;;;;;;5012750;28;20053;-71
2022/03/10 03:35:00;;;;;;;50.30;17.08;;;1.00;99.90;;;;;;5011721;28;20063;-72
2022/03/10 03:37:26;;;;;;;45.63;16.42;;;0.90;99.90;;;;;;5011592;28;20152;-72
2022/03/10 03:39:52;;;;;;;45.90;16.40;;;1.00;99.90;;;;;;5011643;28;20061;-72
2022/03/10 03:42:18;;;;;;;46.22;16.50;;;1.00;99.90;;;;;;5011242;28;20045;-72
2022/03/10 03:44:43;;;;;;;40.17;15.80;;;0.90;99.90;;;;;;5011735;28;20056;-78
2022/03/10 03:47:09;;;;;;;48.70;18.17;;;0.90;99.90;;;;;;5011644;28;20139;-73
2022/03/10 03:49:35;;;;;;;42.38;16.77;;;0.90;99.90;;;;;;5011532;28;20060;-71
2022/03/10 03:52:01;;;;;;;43.47;15.20;;;1.00;99.90;;;;;;4995586;28;20052;-72
2022/03/10 03:54:27;;;;;;;45.58;15.57;;;0.90;99.90;;;;;;4979303;28;20046;-74
2022/03/10 03:56:52;;;;;;;40.65;16.38;;;0.90;99.90;;;;;;5010995;28;20184;-72
2022/03/10 03:59:20;;;;;;;42.55;16.05;;;0.90;99.90;;;;;;4995552;28;20060;-71
2022/03/10 04:01:46;;;;;;;45.95;16.98;;;0.80;99.90;;;;;;5012560;28;20054;-76
2022/03/10 04:04:12;;;;;;;43.72;16.67;;;0.90;99.90;;;;;;5011438;28;20226;-71
2022/03/10 04:06:38;;;;;;;43.80;16.17;;;0.80;99.90;;;;;;4979065;28;20046;-72
2022/03/10 04:09:04;;;;;;;42.40;16.10;;;0.80;99.90;;;;;;4995294;28;20440;-71
2022/03/10 04:11:30;;;;;;;42.00;15.80;;;0.80;99.90;;;;;;5011555;28;20386;-72
2022/03/10 04:13:56;;;;;;;40.95;15.40;;;0.90;99.90;;;;;;5012414;28;20128;-71
2022/03/10 04:16:21;;;;;;;40.03;14.45;;;0.90;99.90;;;;;;5010974;28;20107;-71
2022/03/10 04:18:47;;;;;;;44.80;17.02;;;0.90;99.90;;;;;;4994707;28;20452;-76
2022/03/10 04:21:13;;;;;;;44.05;15.80;;;0.80;99.90;;;;;;5012772;28;20050;-71
2022/03/10 04:23:39;;;;;;;49.78;15.98;;;0.80;99.90;;;;;;5012408;28;20046;-71
2022/03/10 04:26:05;;;;;;;45.50;16.23;;;0.80;99.90;;;;;;5012239;28;20050;-77
2022/03/10 04:28:31;;;;;;;41.67;15.53;;;0.80;99.90;;;;;;5011055;28;20224;-72
2022/03/10 04:30:57;;;;;;;46.00;15.77;;;0.70;99.90;;;;;;4994715;28;20236;-72
2022/03/10 04:33:23;;;;;;;41.80;15.23;;;0.80;99.90;;;;;;5011899;28;20428;-72
2022/03/10 04:35:52;;;;;;;44.67;16.50;;;0.80;99.90;;;;;;5010735;28;20045;-76
2022/03/10 04:38:19;;;;;;;42.00;15.32;;;0.70;99.90;;;;;;4994664;28;20544;-72
2022/03/10 04:40:46;;;;;;;44.70;15.93;;;0.70;99.90;;;;;;5010674;28;20061;-71
2022/03/10 04:43:12;;;;;;;38.63;14.85;;;0.60;99.90;;;;;;4994703;28;20477;-71
2022/03/10 04:45:38;;;;;;;43.53;16.33;;;0.60;99.90;;;;;;5011464;28;20051;-72
2022/03/10 04:48:06;;;;;;;42.28;14.73;;;0.60;99.90;;;;;;4978952;28;20053;-71
2022/03/10 04:50:33;;;;;;;43.72;15.38;;;0.50;99.90;;;;;;5012067;28;20353;-72
2022/03/10 04:52:59;;;;;;;48.85;16.35;;;0.50;99.90;;;;;;5010679;28;20133;-71
2022/03/10 04:55:24;;;;;;;42.60;15.45;;;0.60;99.90;;;;;;5010993;28;20133;-72
2022/03/10 04:57:50;;;;;;;44.60;15.90;;;0.60;99.90;;;;;;4994582;28;20482;-76
2022/03/10 05:00:18;;;;;;;41.22;14.82;;;0.60;99.90;;;;;;5010695;28;20113;-72
2022/03/10 05:02:47;;;;;;;37.72;15.73;;;0.60;99.90;;;;;;5012340;28;20103;-71
2022/03/10 05:05:13;;;;;;;39.45;14.48;;;0.60;99.90;;;;;;5010905;28;20061;-72
2022/03/10 05:07:40;;;;;;;47.83;16.70;;;0.50;99.90;;;;;;5012004;28;20048;-72
2022/03/10 05:10:06;;;;;;;48.17;16.53;;;0.60;99.90;;;;;;5012988;28;20128;-72
2022/03/10 05:12:32;;;;;;;46.95;16.08;;;0.60;99.90;;;;;;5014272;28;20077;-71
2022/03/10 05:14:58;;;;;;;45.15;16.50;;;0.60;99.90;;;;;;5015030;28;20085;-71
2022/03/10 05:17:23;;;;;;;39.58;15.00;;;0.60;99.90;;;;;;5013731;28;20045;-72
2022/03/10 05:19:52;;;;;;;48.13;15.73;;;0.60;99.90;;;;;;5014461;28;20053;-71
2022/03/10 05:22:19;;;;;;;40.65;15.25;;;0.60;99.90;;;;;;5014590;28;20061;-71
2022/03/10 05:24:45;;;;;;;43.40;15.40;;;0.50;99.90;;;;;;5014667;28;20046;-72
2022/03/10 05:27:11;;;;;;;40.60;15.57;;;0.50;99.90;;;;;;5015121;28;20468;-72
2022/03/10 05:29:40;;;;;;;47.67;14.82;;;0.50;99.90;;;;;;5013742;28;20058;-70
2022/03/10 05:32:09;;;;;;;45.78;15.68;;;0.50;99.90;;;;;;4981456;28;20058;-73
2022/03/10 05:34:35;;;;;;;55.60;15.93;;;0.50;99.90;;;;;;5013843;28;20053;-71
2022/03/10 05:37:00;;;;;;;43.92;14.98;;;0.50;99.90;;;;;;5013893;28;20127;-71
2022/03/10 05:39:26;;;;;;;44.17;15.48;;;0.50;99.90;;;;;;5013765;28;20042;-72
2022/03/10 05:41:52;;;;;;;41.15;15.05;;;0.40;99.90;;;;;;4997198;28;20077;-72
2022/03/10 05:44:18;;;;;;;45.47;15.13;;;0.40;99.90;;;;;;4997586;28;20120;-71
2022/03/10 05:46:43;;;;;;;43.72;15.30;;;0.40;99.90;;;;;;4998554;28;20048;-70
2022/03/10 05:49:09;;;;;;;37.80;15.07;;;0.30;99.90;;;;;;4998738;28;20053;-70
2022/03/10 05:51:36;;;;;;;43.72;15.43;;;0.30;99.90;;;;;;5013829;28;20057;-72
2022/03/10 05:54:03;;;;;;;43.28;15.63;;;0.30;99.90;;;;;;5013911;28;20402;-71
2022/03/10 05:56:29;;;;;;;44.70;15.52;;;0.30;99.90;;;;;;5013714;28;20129;-72
2022/03/10 05:58:55;;;;;;;46.00;15.35;;;0.30;99.90;;;;;;5013935;28;20374;-71
2022/03/10 06:01:20;;;;;;;44.42;15.82;;;0.20;99.90;;;;;;5014840;28;20122;-72
2022/03/10 06:03:46;;;;;;;42.10;15.43;;;0.30;99.90;;;;;;5015157;28;20191;-72
2022/03/10 06:06:13;;;;;;;44.42;15.35;;;0.20;99.90;;;;;;5013292;28;20539;-72
2022/03/10 06:08:39;;;;;;;40.90;15.23;;;0.20;99.90;;;;;;4981306;28;20081;-71
2022/03/10 06:11:07;;;;;;;42.50;14.57;;;0.20;99.90;;;;;;5014528;28;20074;-77
2022/03/10 06:13:33;;;;;;;44.70;15.85;;;0.20;99.90;;;;;;5014055;28;20132;-72
2022/03/10 06:16:00;;;;;;;45.15;15.68;;;0.30;99.90;;;;;;5014555;28;20049;-77
2022/03/10 06:18:26;;;;;;;48.00;16.25;;;0.30;99.90;;;;;;4997176;28;20041;-71
2022/03/10 06:20:52;;;;;;;43.78;15.70;;;0.30;99.90;;;;;;5013992;28;20125;-72
2022/03/10 06:23:18;;;;;;;44.05;16.50;;;0.40;99.90;;;;;;5012516;28;20042;-74
2022/03/10 06:25:43;;;;;;;43.08;15.98;;;0.40;99.90;;;;;;4996975;28;20137;-71
2022/03/10 06:28:09;;;;;;;42.13;15.00;;;0.40;99.90;;;;;;5012735;28;20053;-71
2022/03/10 06:30:35;;;;;;;49.03;16.17;;;0.50;99.90;;;;;;4981051;28;20120;-70
2022/03/10 06:33:01;;;;;;;39.40;14.82;;;0.50;99.90;;;;;;5014721;28;20109;-77
2022/03/10 06:35:28;;;;;;;45.13;15.52;;;0.70;99.90;;;;;;5014446;28;20473;-72
2022/03/10 06:37:54;;;;;;;49.03;15.93;;;0.80;99.90;;;;;;4996623;28;20049;-72
2022/03/10 06:40:20;;;;;;;45.60;16.17;;;0.80;99.90;;;;;;5013297;28;20121;-72
2022/03/10 06:42:46;;;;;;;46.10;15.57;;;0.90;99.90;;;;;;5013883;28;20477;-72
2022/03/10 06:45:11;;;;;;;46.08;15.98;;;1.00;99.90;;;;;;5013858;28;20500;-72
2022/03/10 06:47:40;;;;;;;42.58;16.23;;;1.10;99.90;;;;;;4996227;28;20052;-73
2022/03/10 06:50:06;;;;;;;53.72;16.40;;;1.00;99.90;;;;;;5014095;28;20046;-72
2022/03/10 06:52:32;;;;;;;46.85;15.73;;;1.10;99.90;;;;;;5012591;28;20127;-71
2022/03/10 06:54:58;;;;;;;43.70;16.20;;;1.10;99.90;;;;;;4980760;28;20469;-71
2022/03/10 06:57:24;;;;;;;45.85;16.02;;;1.10;99.90;;;;;;5012031;28;20068;-74
2022/03/10 06:59:50;;;;;;;41.67;15.27;;;1.20;99.90;;;;;;5012899;28;20252;-72
2022/03/10 07:02:18;;;;;;;44.72;15.57;;;1.30;99.90;;;;;;5013760;28;20130;-72
2022/03/10 07:04:44;;;;;;;46.22;15.82;;;1.40;99.90;;;;;;5012511;28;20069;-71
2022/03/10 07:07:11;;;;;;;42.40;14.88;;;1.60;99.90;;;;;;5012860;28;20050;-72
2022/03/10 07:09:37;;;;;;;44.35;15.38;;;1.80;99.90;;;;;;5012677;28;20058;-72
2022/03/10 07:12:03;;;;;;;47.40;16.73;;;2.10;99.90;;;;;;5012452;28;20045;-72
2022/03/10 07:14:28;;;;;;;46.05;15.70;;;2.20;99.90;;;;;;5012815;28;20042;-71
2022/03/10 07:16:54;;;;;;;36.00;11.70;;;2.40;99.90;;;;;;5012095;28;20050;-71
2022/03/10 07:19:20;;;;;;;47.83;14.57;;;2.50;99.90;;;;;;5013419;28;20057;-71
2022/03/10 07:21:47;;;;;;;33.78;10.48;;;2.70;99.70;;;;;;5012929;28;20140;-71
2022/03/10 07:24:13;;;;;;;47.58;16.80;;;2.80;99.40;;;;;;5013205;28;20531;-72
2022/03/10 07:26:39;;;;;;;47.78;15.70;;;2.90;99.20;;;;;;5012746;28;20515;-72
2022/03/10 07:29:05;;;;;;;44.28;14.00;;;3.00;98.90;;;;;;4995944;28;20080;-71
2022/03/10 07:31:32;;;;;;;42.75;14.38;;;3.10;98.70;;;;;;5011330;28;20062;-71
2022/03/10 07:33:58;;;;;;;53.08;21.13;;;3.20;98.00;;;;;;4995184;28;20464;-72
2022/03/10 07:36:24;;;;;;;40.80;15.00;;;3.30;98.10;;;;;;5012898;28;20042;-72
2022/03/10 07:38:50;;;;;;;55.90;25.33;;;3.40;97.70;;;;;;5011766;28;20125;-72
2022/03/10 07:41:16;;;;;;;50.78;23.02;;;3.60;97.50;;;;;;5012928;28;20137;-72
2022/03/10 07:43:42;;;;;;;47.58;18.63;;;3.60;96.90;;;;;;4995488;28;20510;-71
2022/03/10 07:46:07;;;;;;;42.60;16.95;;;3.70;96.60;;;;;;5012245;28;20358;-70
2022/03/10 07:48:34;;;;;;;41.97;16.77;;;3.80;96.80;;;;;;5011683;28;20084;-71
2022/03/10 07:51:00;;;;;;;43.30;14.90;;;3.90;96.40;;;;;;4994947;28;20069;-71
2022/03/10 07:53:26;;;;;;;49.65;16.33;;;4.00;95.70;;;;;;5011140;28;20497;-71
2022/03/10 07:55:55;;;;;;;38.83;13.88;;;4.10;95.60;;;;;;5011778;28;20061;-71
2022/03/10 07:58:29;;;;;;;43.03;15.55;;;4.10;95.40;;;;;;5012027;28;20045;-72
2022/03/10 08:00:54;;;;;;;30.40;10.48;;;4.20;95.90;;;;;;5012449;28;20458;-72
2022/03/10 08:03:25;;;;;;;49.00;16.67;;;4.30;95.60;;;;;;5012598;28;20061;-74
2022/03/10 08:05:51;;;;;;;39.75;13.63;;;4.40;95.30;;;;;;5011861;28;20041;-73
2022/03/10 08:08:17;;;;;;;41.63;14.25;;;4.50;94.80;;;;;;5012591;28;20112;-71
2022/03/10 08:10:43;;;;;;;42.83;14.32;;;4.70;94.40;;;;;;4996054;28;20182;-72
2022/03/10 08:13:09;;;;;;;40.75;15.82;;;4.70;94.50;;;;;;4995100;28;20046;-72
2022/03/10 08:15:35;;;;;;;40.13;12.25;;;4.80;94.30;;;;;;5012554;28;20053;-72
2022/03/10 08:18:00;;;;;;;56.95;17.20;;;4.90;93.70;;;;;;5011357;28;20108;-71
2022/03/10 08:20:26;;;;;;;50.63;15.65;;;5.00;94.10;;;;;;5012838;28;20515;-71
2022/03/10 08:22:52;;;;;;;45.92;16.60;;;5.00;94.30;;;;;;5011256;28;20115;-72
2022/03/10 08:25:18;;;;;;;42.63;14.55;;;5.10;94.40;;;;;;5011202;28;20133;-72
2022/03/10 08:27:47;;;;;;;43.70;17.13;;;5.20;94.70;;;;;;5011880;28;20129;-72
2022/03/10 08:30:14;;;;;;;43.55;15.50;;;5.30;94.50;;;;;;5011376;28;20108;-73
2022/03/10 08:32:42;;;;;;;51.45;16.33;;;5.30;94.70;;;;;;4994932;28;20124;-71
2022/03/10 08:35:08;;;;;;;45.72;18.38;;;5.40;94.90;;;;;;5011679;28;20065;-71
2022/03/10 08:37:34;;;;;;;53.90;16.02;;;5.50;95.00;;;;;;5011591;28;20116;-73
2022/03/10 08:40:00;;;;;;;51.90;19.20;;;5.70;94.60;;;;;;4995406;28;20038;-72
2022/03/10 08:42:26;;;;;;;60.13;22.05;;;5.70;94.70;;;;;;5012786;28;20132;-71
2022/03/10 08:44:52;;;;;;;53.83;18.52;;;5.80;94.80;;;;;;5013495;28;20122;-71
2022/03/10 08:47:18;;;;;;;56.47;22.23;;;6.00;93.60;;;;;;5016267;28;20042;-71
2022/03/10 08:49:44;;;;;;;52.05;20.35;;;6.10;93.50;;;;;;5014994;28;20072;-71
2022/03/10 08:52:11;;;;;;;57.42;22.70;;;6.20;93.90;;;;;;4982519;28;20054;-72
2022/03/10 08:54:37;;;;;;;49.85;17.73;;;6.30;94.20;;;;;;5014974;28;20112;-72
2022/03/10 08:57:03;;;;;;;50.45;19.55;;;6.40;94.00;;;;;;5014928;28;20085;-72
2022/03/10 08:59:29;;;;;;;54.85;19.70;;;6.50;93.80;;;;;;5015980;28;20050;-71
2022/03/10 09:01:54;;;;;;;40.97;15.68;;;6.60;93.60;;;;;;5015153;28;20042;-72
2022/03/10 09:04:20;;;;;;;47.17;18.23;;;6.80;91.70;;;;;;5014831;28;20050;-72
2022/03/10 09:06:46;;;;;;;51.83;20.08;;;6.80;92.90;;;;;;5015091;28;20417;-72
2022/03/10 09:09:12;;;;;;;45.28;17.58;;;6.90;93.30;;;;;;4998054;28;20132;-73
2022/03/10 09:11:38;;;;;;;48.65;19.83;;;7.00;93.40;;;;;;5014036;28;20037;-72
2022/03/10 09:14:04;;;;;;;44.25;16.77;;;7.00;93.60;;;;;;4982136;28;20044;-72
2022/03/10 09:16:30;;;;;;;47.90;18.77;;;7.20;93.20;;;;;;5013896;28;20082;-72
2022/03/10 09:18:55;;;;;;;45.30;17.38;;;7.30;92.90;;;;;;5014398;28;20069;-72
2022/03/10 09:21:21;;;;;;;41.08;15.68;;;7.40;92.20;;;;;;5014289;28;20116;-73
2022/03/10 09:23:47;;;;;;;44.78;16.55;;;7.50;92.40;;;;;;5015099;28;20038;-72
2022/03/10 09:26:13;;;;;;;50.83;16.80;;;7.60;91.90;;;;;;5015750;28;20141;-72
2022/03/10 09:28:39;;;;;;;43.15;17.33;;;7.70;91.10;;;;;;5014420;28;20089;-75
2022/03/10 09:31:04;;;;;;;51.78;18.58;;;7.80;90.80;;;;;;5013793;28;20080;-78
2022/03/10 09:33:30;;;;;;;41.35;17.45;;;7.90;90.00;;;;;;4998016;28;20049;-72
2022/03/10 09:35:56;;;;;;;44.97;16.88;;;8.00;89.20;;;;;;5014400;28;20045;-73
2022/03/10 09:38:22;;;;;;;38.88;16.08;;;8.00;90.30;;;;;;4982116;28;20068;-73
2022/03/10 09:40:52;;;;;;;46.13;16.40;;;8.20;88.50;;;;;;5015372;28;20049;-72
2022/03/10 09:43:21;;;;;;;43.95;17.65;;;8.20;89.30;;;;;;5015261;28;20042;-72
2022/03/10 09:45:51;;;;;;;44.58;17.52;;;8.30;90.10;;;;;;5015809;28;20382;-72
2022/03/10 09:48:18;;;;;;;47.92;17.00;;;8.30;90.30;;;;;;4997635;28;20058;-78
2022/03/10 09:50:46;;;;;;;41.28;14.70;;;8.30;90.40;;;;;;4997541;28;20049;-72
2022/03/10 09:53:12;;;;;;;49.50;17.52;;;8.60;87.90;;;;;;4997024;28;20049;-73
2022/03/10 09:55:38;;;;;;;50.15;19.45;;;8.80;86.90;;;;;;5014459;28;20414;-71
2022/03/10 09:58:05;;;;;;;43.75;16.40;;;8.90;82.20;;;;;;5014695;28;20124;-72
2022/03/10 10:00:31;;;;;;;48.53;17.52;;;8.90;86.20;;;;;;5013622;28;20049;-72
2022/03/10 10:02:57;;;;;;;43.63;16.42;;;8.90;87.40;;;;;;5014769;28;20050;-72
2022/03/10 10:05:23;;;;;;;54.20;19.02;;;9.00;86.40;;;;;;5013485;28;20049;-72
2022/03/10 10:08:14;;;;;;;44.75;18.13;;;9.20;85.60;;;;;;5014488;28;20057;-71
2022/03/10 10:11:02;;;;;;;47.92;18.20;;;9.30;84.50;;;;;;5014612;28;20107;-72
2022/03/10 10:13:38;;;;;;;46.80;18.63;;;9.30;84.20;;;;;;5014579;28;20046;-72
2022/03/10 10:16:06;;;;;;;46.22;18.20;;;9.50;80.00;;;;;;4997053;28;20489;-76
2022/03/10 10:18:34;;;;;;;51.55;19.10;;;9.50;81.10;;;;;;4997204;28;20050;-72
2022/03/10 10:21:00;;;;;;;55.30;18.60;;;9.50;84.10;;;;;;4997027;28;20061;-72
2022/03/10 10:23:34;;;;;;;47.00;17.48;;;9.60;85.60;;;;;;5014661;28;20045;-73
2022/03/10 10:26:09;;;;;;;44.00;16.38;;;9.70;85.30;;;;;;5015004;28;20088;-72
2022/03/10 10:28:35;;;;;;;46.17;17.90;;;10.00;79.70;;;;;;5012990;28;20073;-73
2022/03/10 10:31:03;;;;;;;39.83;13.75;;;10.10;78.80;;;;;;5014100;28;20486;-72
2022/03/10 10:33:32;;;;;;;49.40;19.13;;;10.10;78.80;;;;;;5013080;28;20120;-72
2022/03/10 10:36:18;;;;;;;51.70;20.33;;;10.20;79.30;;;;;;5013383;28;20100;-73
2022/03/10 10:38:46;;;;;;;56.95;19.55;;;10.20;78.10;;;;;;5013889;28;20493;-72
2022/03/10 10:41:29;;;;;;;48.10;18.17;;;10.30;76.20;;;;;;5013968;28;20053;-73
2022/03/10 10:44:01;;;;;;;45.17;17.90;;;10.40;76.20;;;;;;5013666;28;20081;-72
2022/03/10 10:46:41;;;;;;;48.30;17.58;;;10.50;69.20;;;;;;5014552;28;20137;-72
2022/03/10 10:49:16;;;;;;;46.35;18.30;;;10.60;74.20;;;;;;4997587;28;20096;-73
2022/03/10 10:52:00;;;;;;;48.50;18.65;;;10.60;74.80;;;;;;5012961;28;20042;-75
2022/03/10 10:54:28;;;;;;;49.72;18.50;;;10.80;74.10;;;;;;5014305;28;20151;-71
2022/03/10 10:56:55;;;;;;;39.65;15.85;;;10.80;73.50;;;;;;5014017;28;20046;-72
2022/03/10 10:59:41;;;;;;;43.78;17.23;;;11.00;68.20;;;;;;5013224;28;20045;-71
2022/03/10 11:02:22;;;;;;;47.55;18.65;;;11.20;67.50;;;;;;5015410;28;20125;-71
2022/03/10 11:04:51;;;;;;;47.08;17.42;;;11.20;68.00;;;;;;5013689;28;20168;-73
2022/03/10 11:07:18;;;;;;;53.38;20.60;;;11.20;70.80;;;;;;5012709;28;20042;-73
2022/03/10 11:09:46;;;;;;;;;;;11.40;65.00;;;;;;4998687;28;20150;-72
2022/03/10 11:12:15;;;;;;;44.92;18.77;;;11.30;67.00;;;;;;5014562;28;19928;-71
2022/03/10 11:14:43;;;;;;;45.58;17.40;;;11.30;71.70;;;;;;4998640;28;20049;-72
2022/03/10 11:17:10;;;;;;;48.67;18.75;;;11.40;70.90;;;;;;5015336;28;20050;-75
2022/03/10 11:19:38;;;;;;;45.88;19.17;;;11.40;70.70;;;;;;5000139;28;20049;-72
2022/03/10 11:22:19;;;;;;;50.88;20.05;;;11.40;71.70;;;;;;5015824;28;20046;-73
2022/03/10 11:25:00;;;;;;;53.75;19.45;;;11.60;68.90;;;;;;5001255;28;20385;-75
2022/03/10 11:27:56;;;;;;;49.40;18.42;;;11.50;70.70;;;;;;5001273;28;20108;-73
2022/03/10 11:30:23;;;;;;;;;;;11.60;70.30;;;;;;5017130;28;20107;-74
2022/03/10 11:33:12;;;;;;;50.17;19.75;;;11.70;64.90;;;;;;5015431;28;19921;-74
2022/03/10 11:35:40;;;;;;;42.22;14.55;;;11.70;64.20;;;;;;5018503;28;20050;-73
2022/03/10 11:38:07;;;;;;;48.10;17.60;;;11.90;67.50;;;;;;5017839;28;20056;-73
2022/03/10 11:40:41;;;;;;;46.25;17.30;;;11.90;68.60;;;;;;5017229;28;20376;-73
2022/03/10 11:43:16;;;;;;;47.88;19.20;;;12.00;68.10;;;;;;5016243;28;20053;-73
2022/03/10 11:45:42;;;;;;;48.85;19.27;;;12.10;66.00;;;;;;5015757;28;20089;-74
2022/03/10 11:48:22;;;;;;;54.58;20.17;;;12.10;68.50;;;;;;5015761;28;20057;-72
2022/03/10 11:50:49;;;;;;;51.70;19.40;;;12.10;69.20;;;;;;5018722;28;20054;-73
2022/03/10 11:53:15;;;;;;;49.72;18.98;;;12.20;69.20;;;;;;5003856;28;20136;-73
2022/03/10 11:55:52;;;;;;;47.25;18.50;;;12.30;67.10;;;;;;4986789;28;20089;-72
2022/03/10 11:58:31;;;;;;;53.63;19.83;;;12.30;67.00;;;;;;5020865;28;20053;-72
2022/03/10 12:00:57;;;;;;;53.05;18.98;;;12.40;65.10;;;;;;5017060;28;20053;-73
2022/03/10 12:03:30;;;;;;;58.23;19.53;;;12.40;66.80;;;;;;5014970;28;20057;-71
2022/03/10 12:06:14;;;;;;;48.35;18.58;;;12.50;66.20;;;;;;5017338;28;20061;-72
2022/03/10 12:08:42;;;;;;;49.67;19.70;;;12.60;66.10;;;;;;5017775;28;20049;-72
2022/03/10 12:11:14;;;;;;;50.05;17.30;;;12.70;61.60;;;;;;5017856;28;20081;-78
2022/03/10 12:13:44;;;;;;;46.63;18.70;;;12.70;64.30;;;;;;5017521;28;20049;-71
2022/03/10 12:16:28;;;;;;;48.95;16.60;;;12.80;63.10;;;;;;5017897;28;20393;-72
2022/03/10 12:18:55;;;;;;;50.47;17.80;;;12.90;63.30;;;;;;5021770;28;20049;-71
2022/03/10 12:21:22;;;;;;;;;;;13.00;61.80;;;;;;5020945;28;20490;-73
2022/03/10 12:24:02;;;;;;;47.28;18.60;;;13.00;62.60;;;;;;5003810;28;19921;-72
2022/03/10 12:26:38;;;;;;;50.13;18.45;;;13.00;58.50;;;;;;5021388;28;20120;-73
2022/03/10 12:29:06;;;;;;;51.40;19.13;;;13.10;62.60;;;;;;5020881;28;20041;-71
2022/03/10 12:31:35;;;;;;;48.78;17.73;;;13.20;65.00;;;;;;5018424;28;20084;-73
2022/03/10 12:34:14;;;;;;;55.03;19.65;;;13.30;62.80;;;;;;5002112;28;20050;-72
2022/03/10 12:36:42;;;;;;;50.05;19.63;;;13.30;61.90;;;;;;5001296;28;20133;-72
2022/03/10 12:39:17;;;;;;;54.03;21.58;;;13.30;59.80;;;;;;5001805;28;20046;-72
2022/03/10 12:41:48;;;;;;;51.78;17.23;;;13.40;57.50;;;;;;5019095;28;20133;-72
2022/03/10 12:44:18;;;;;;;50.30;19.00;;;13.50;62.10;;;;;;5018860;28;20123;-71